Date,TemperatureHighF,TemperatureAvgF,TemperatureLowF,DewpointHighF,DewpointAvgF,DewpointLowF,HumidityHigh,HumidityAvg,HumidityLow,PressureMaxIn,PressureMinIn,WindSpeedMaxMPH,WindSpeedAvgMPH,GustSpeedMaxMPH,PrecipitationSumIn
2012-1-1,22,14,6,13,7,1,86,75,54,0.00,40.00,0,-999,0,0.00
2012-1-2,39,28,18,24,19,13,85,68,43,0.00,40.00,0,-999,0,0.00
2012-1-3,35,31,22,16,13,11,70,49,39,0.00,40.00,0,-999,0,0.00
2012-1-4,34,25,21,16,14,12,75,63,42,0.00,40.00,0,-999,0,0.00
2012-1-5,41,33,26,22,17,12,70,52,38,0.00,40.00,0,-999,0,0.00
2012-1-6,27,21,17,19,13,4,87,71,56,0.00,40.00,0,-999,0,0.00
2012-1-7,22,16,10,13,9,4,90,73,63,0.00,40.00,0,-999,0,0.00
2012-1-8,19,15,9,18,12,6,95,88,80,0.00,40.00,0,-999,0,0.00
2012-1-9,21,18,15,19,17,13,97,95,91,0.00,40.00,0,-999,0,0.00
2012-1-10,29,20,14,24,18,13,95,90,69,0.00,40.00,0,-999,0,0.00
2012-1-11,16,6,0,14,-1,-7,92,75,60,0.00,40.00,0,-999,0,0.00
2012-1-12,10,5,-1,0,-3,-5,86,71,56,0.00,40.00,0,-999,0,0.00
2012-1-13,20,12,5,4,0,-4,71,57,46,0.00,40.00,0,-999,0,0.00
2012-1-14,36,25,16,4,1,-2,46,35,23,0.00,40.00,0,-999,0,0.00
2012-1-15,32,27,16,7,2,-3,68,34,27,0.00,40.00,0,-999,0,0.00
2012-1-16,16,6,0,9,1,-5,89,77,61,0.00,40.00,0,-999,0,0.00
2012-1-17,8,3,0,2,-2,-6,90,82,71,0.00,40.00,0,-999,0,0.00
2012-1-18,24,15,8,23,11,1,96,86,67,0.00,40.00,0,-999,0,0.00
2012-1-19,28,26,24,26,24,22,97,95,93,0.00,40.00,0,-999,0,0.00
2012-1-20,29,25,23,25,23,20,98,92,78,0.00,40.00,0,-999,0,0.00
2012-1-21,29,26,21,28,26,19,98,97,94,0.00,40.00,0,-999,0,0.00
2012-1-22,20,14,11,19,12,9,96,89,75,0.00,40.00,0,-999,0,0.00
2012-1-23,23,17,12,19,15,10,94,91,82,0.00,40.00,0,-999,0,0.00
2012-1-24,20,13,6,16,9,1,96,82,72,0.00,40.00,0,-999,0,0.00
2012-1-25,27,22,14,26,20,11,97,93,84,0.00,40.00,0,-999,0,0.00
2012-1-26,27,23,20,25,21,14,96,91,80,0.00,40.00,0,-999,0,0.00
2012-1-27,19,10,4,14,3,-4,85,73,50,0.00,40.00,0,-999,0,0.00
2012-1-28,20,11,4,7,2,-3,84,67,47,0.00,40.00,0,-999,0,0.00
2012-1-29,29,19,12,19,10,5,84,68,54,0.00,40.00,0,-999,0,0.00
2012-1-30,28,22,18,22,14,5,94,73,49,0.00,40.00,0,-999,0,0.00
2012-1-31,26,19,13,16,13,9,92,78,62,0.00,40.00,0,-999,0,0.00
2012-2-1,26,20,14,21,16,11,97,84,54,0.00,40.00,0,-999,0,0.00
2012-2-2,29,22,19,22,18,11,96,83,63,0.00,40.00,0,-999,0,0.00
2012-2-3,27,19,15,11,9,6,73,64,49,0.00,40.00,0,-999,0,0.00
2012-2-4,23,15,8,10,6,3,83,67,52,0.00,40.00,0,-999,0,0.00
2012-2-5,24,15,9,7,4,1,72,62,43,0.00,40.00,0,-999,0,0.00
2012-2-6,25,15,10,6,4,2,78,61,39,0.00,40.00,0,-999,0,0.00
2012-2-7,20,13,9,8,6,2,82,71,59,0.00,40.00,0,-999,0,0.00
2012-2-8,21,17,12,19,11,4,94,77,62,0.00,40.00,0,-999,0,0.00
2012-2-9,29,20,16,20,15,12,92,81,67,0.00,40.00,0,-999,0,0.00
2012-2-10,26,22,16,24,20,14,97,92,84,0.00,40.00,0,-999,0,0.00
2012-2-11,34,27,23,25,24,21,96,86,67,0.00,40.00,0,-999,0,0.00
2012-2-12,31,26,22,26,23,20,96,88,76,0.00,40.00,0,-999,0,0.00
2012-2-13,27,22,15,21,17,11,85,79,68,0.00,40.00,0,-999,0,0.00
2012-2-14,25,18,14,19,14,8,94,84,73,0.00,40.00,0,-999,0,0.00
2012-2-15,24,15,9,16,10,3,91,80,61,0.00,40.00,0,-999,0,0.00
2012-2-16,23,12,5,9,5,2,93,76,55,0.00,40.00,0,-999,0,0.00
2012-2-17,25,17,11,19,12,7,93,84,72,0.00,40.00,0,-999,0,0.00
2012-2-18,24,18,11,21,15,8,97,89,79,0.00,40.00,0,-999,0,0.00
2012-2-19,21,14,7,15,8,1,91,78,60,0.00,40.00,0,-999,0,0.00
2012-2-20,17,11,5,12,7,1,94,84,72,0.00,40.00,0,-999,0,0.00
2012-2-21,28,21,13,27,19,11,96,92,86,0.00,40.00,0,-999,0,0.00
2012-2-22,30,27,14,28,25,9,97,94,86,0.00,40.00,0,-999,0,0.00
2012-2-23,18,13,10,10,7,3,93,76,61,0.00,40.00,0,-999,0,0.00
2012-2-24,26,14,8,13,9,5,93,80,57,0.00,40.00,0,-999,0,0.00
2012-2-25,20,15,8,18,11,5,95,86,73,0.00,40.00,0,-999,0,0.00
2012-2-26,16,9,4,8,5,0,91,83,67,0.00,40.00,0,-999,0,0.00
2012-2-27,21,15,6,16,9,0,91,77,62,0.00,40.00,0,-999,0,0.00
2012-2-28,20,16,11,16,12,5,93,81,68,0.00,40.00,0,-999,0,0.00
2012-2-29,21,14,8,17,11,4,93,88,77,0.00,40.00,0,-999,0,0.00
2012-3-1,18,10,7,11,6,4,91,86,74,0.00,40.00,0,-999,0,0.00
2012-3-2,20,10,4,10,6,1,91,83,64,0.00,40.00,0,-999,0,0.00
2012-3-3,26,18,9,23,16,7,96,92,81,0.00,40.00,0,-999,0,0.00
2012-3-4,34,26,21,25,22,17,96,85,65,0.00,40.00,0,-999,0,0.00
2012-3-5,41,28,19,23,19,16,90,70,48,0.00,40.00,0,-999,0,0.00
2012-3-6,35,25,16,26,20,11,97,81,46,0.00,40.00,0,-999,0,0.00
2012-3-7,26,16,8,14,8,4,93,74,40,0.00,40.00,0,-999,0,0.00
2012-3-8,37,21,8,13,7,3,80,57,29,0.00,40.00,0,-999,0,0.00
2012-3-9,43,28,19,15,10,6,64,48,24,0.00,40.00,0,-999,0,0.00
2012-3-10,45,31,22,15,6,-100,46,36,22,0.00,40.00,0,-999,0,0.00
2012-3-11,42,32,25,26,15,8,92,52,31,0.00,40.00,0,-999,0,0.00
2012-3-12,40,32,26,26,20,16,93,63,44,0.00,40.00,0,-999,0,0.00
2012-3-13,37,34,30,26,19,16,86,53,47,0.00,40.00,0,-999,0,0.00
2012-3-14,33,30,29,30,29,27,99,96,90,0.00,40.00,0,-999,0,0.00
2012-3-15,42,34,29,34,30,27,99,87,67,0.00,40.00,0,-999,0,0.00
2012-3-16,38,34,31,31,30,26,97,84,63,0.00,40.00,0,-999,0,0.00
2012-3-17,42,35,32,31,29,24,96,78,53,0.00,40.00,0,-999,0,0.00
2012-3-18,34,30,22,31,26,18,98,89,71,0.00,40.00,0,-999,0,0.00
2012-3-19,23,18,9,21,15,4,96,89,77,0.00,40.00,0,-999,0,0.00
2012-3-20,26,16,4,18,10,-1,91,78,63,0.00,40.00,0,-999,0,0.00
2012-3-21,40,28,20,28,23,18,97,83,59,0.00,40.00,0,-999,0,0.00
2012-3-22,47,36,26,25,22,-100,81,59,38,0.00,40.00,0,-999,0,0.00
2012-3-23,52,42,36,27,22,19,67,46,30,0.00,40.00,0,-999,0,0.00
2012-3-24,51,41,33,26,21,11,74,48,24,0.00,40.00,0,-999,0,0.00
2012-3-25,48,43,40,25,21,19,52,42,34,0.00,40.00,0,-999,0,0.00
2012-3-26,43,34,24,28,21,16,95,62,37,0.00,40.00,0,-999,0,0.00
2012-3-27,39,28,18,21,19,16,97,72,43,0.00,40.00,0,-999,0,0.00
2012-3-28,40,34,27,28,21,17,91,61,47,0.00,40.00,0,-999,0,0.00
2012-3-29,33,26,19,28,21,13,97,82,51,0.00,40.00,0,-999,0,0.00
2012-3-30,39,34,29,34,30,27,97,87,75,0.00,40.00,0,-999,0,0.00
2012-3-31,52,43,34,34,30,21,97,64,35,0.00,40.00,0,-999,0,0.00
2012-4-1,47,30,21,26,20,13,94,68,37,0.00,40.00,0,-999,0,0.00
2012-4-2,38,26,17,19,14,11,86,63,34,0.00,40.00,0,-999,0,0.00
2012-4-3,40,28,22,21,18,12,77,66,46,0.00,40.00,0,-999,0,0.00
2012-4-4,48,40,32,24,22,17,66,48,32,0.00,40.00,0,-999,0,0.00
2012-4-5,41,32,24,27,19,12,97,61,34,0.00,40.00,0,-999,0,0.00
2012-4-6,28,22,14,27,17,5,96,81,65,0.00,40.00,0,-999,0,0.00
2012-4-7,35,23,13,11,8,2,82,54,30,0.00,40.00,0,-999,0,0.00
2012-4-8,49,37,27,18,9,3,46,33,19,0.00,40.00,0,-999,0,0.00
2012-4-9,53,40,30,18,12,8,46,32,18,0.00,40.00,0,-999,0,0.00
2012-4-10,57,45,34,19,13,8,40,29,17,0.00,40.00,0,-999,0,0.00
2012-4-11,56,46,35,31,18,14,86,36,22,0.00,40.00,0,-999,0,0.00
2012-4-12,39,31,27,31,24,18,98,77,54,0.00,40.00,0,-999,0,0.00
2012-4-13,39,30,23,24,20,16,89,69,39,0.00,40.00,0,-999,0,0.00
2012-4-14,42,32,23,21,16,-100,79,55,28,0.00,40.00,0,-999,0,0.00
2012-4-15,37,30,25,25,16,11,97,58,36,0.00,40.00,0,-999,0,0.00
2012-4-16,40,29,19,29,21,16,98,76,40,0.00,40.00,0,-999,0,0.00
2012-4-17,43,34,27,30,26,16,99,75,45,0.00,40.00,0,-999,0,0.00
2012-4-18,41,33,29,30,27,20,98,77,54,0.00,40.00,0,-999,0,0.00
2012-4-19,38,32,28,32,26,20,96,78,51,0.00,40.00,0,-999,0,0.00
2012-4-20,49,39,30,35,30,24,96,72,48,0.00,40.00,0,-999,0,0.00
2012-4-21,55,45,35,29,25,21,59,46,27,0.00,40.00,0,-999,0,0.00
2012-4-22,61,48,41,34,29,25,58,47,30,0.00,40.00,0,-999,0,0.00
2012-4-23,63,50,43,34,30,27,60,47,27,0.00,40.00,0,-999,0,0.00
2012-4-24,58,48,41,36,33,28,81,56,34,0.00,40.00,0,-999,0,0.00
2012-4-25,61,46,37,38,32,28,84,61,33,0.00,40.00,0,-999,0,0.00
2012-4-26,53,44,30,39,33,27,94,66,43,0.00,40.00,0,-999,0,0.00
2012-4-27,30,25,21,28,21,13,98,86,65,0.00,40.00,0,-999,0,0.00
2012-4-28,32,24,18,20,16,-100,96,75,53,0.00,40.00,0,-999,0,0.00
2012-4-29,37,30,23,25,22,17,91,74,55,0.00,40.00,0,-999,0,0.00
2012-4-30,47,36,29,34,28,24,98,74,42,0.00,40.00,0,-999,0,0.00
2012-5-1,43,36,32,34,20,4,98,54,26,0.00,40.00,0,-999,0,0.00
2012-5-2,43,35,28,29,16,5,97,52,22,0.00,40.00,0,-999,0,0.00
2012-5-3,44,38,34,30,29,25,83,72,46,0.00,40.00,0,-999,0,0.00
2012-5-4,38,34,31,35,31,29,98,91,76,0.00,40.00,0,-999,0,0.00
2012-5-5,35,30,25,32,21,-100,96,73,49,0.00,40.00,0,-999,0,0.00
2012-5-6,42,30,19,23,17,10,90,62,30,0.00,40.00,0,-999,0,0.00
2012-5-7,50,38,27,22,14,2,61,40,16,0.00,40.00,0,-999,0,0.00
2012-5-8,56,43,31,22,17,11,51,36,22,0.00,40.00,0,-999,0,0.00
2012-5-9,62,49,38,27,22,8,51,35,22,0.00,40.00,0,-999,0,0.00
2012-5-10,49,43,34,33,24,14,74,49,25,0.00,40.00,0,-999,0,0.00
2012-5-11,51,39,29,27,20,14,74,49,24,0.00,40.00,0,-999,0,0.00
2012-5-12,53,41,31,27,19,-100,65,44,22,0.00,40.00,0,-999,0,0.00
2012-5-13,59,46,36,30,18,9,57,36,15,0.00,40.00,0,-999,0,0.00
2012-5-14,65,51,40,31,21,13,48,32,20,0.00,40.00,0,-999,0,0.00
2012-5-15,69,56,45,26,20,13,38,25,13,0.00,40.00,0,-999,0,0.00
2012-5-16,66,53,44,36,27,21,71,37,20,0.00,40.00,0,-999,0,0.00
2012-5-17,61,48,43,39,34,27,72,59,41,0.00,40.00,0,-999,0,0.00
2012-5-18,46,38,33,39,35,28,97,89,59,0.00,40.00,0,-999,0,0.00
2012-5-19,53,40,31,37,26,-100,92,62,34,0.00,40.00,0,-999,0,0.00
2012-5-20,58,46,36,31,25,19,53,43,29,0.00,40.00,0,-999,0,0.00
2012-5-21,69,55,44,34,28,21,54,36,22,0.00,40.00,0,-999,0,0.00
2012-5-22,59,48,40,34,27,20,67,45,23,0.00,40.00,0,-999,0,0.00
2012-5-23,40,34,28,30,27,20,97,75,46,0.00,40.00,0,-999,0,0.00
2012-5-24,40,31,26,29,25,22,95,78,53,0.00,40.00,0,-999,0,0.00
2012-5-25,38,32,28,35,28,21,98,85,65,0.00,40.00,0,-999,0,0.00
2012-5-26,52,36,29,39,32,27,98,88,57,0.00,40.00,0,-999,0,0.00
2012-5-27,32,29,27,30,28,25,98,95,88,0.00,40.00,0,-999,0,0.00
2012-5-28,44,34,28,34,30,27,98,88,65,0.00,40.00,0,-999,0,0.00
2012-5-29,56,43,32,35,29,23,92,61,34,0.00,40.00,0,-999,0,0.00
2012-5-30,54,46,38,34,28,20,62,49,38,0.00,40.00,0,-999,0,0.00
2012-5-31,61,49,40,39,35,28,72,59,41,0.00,40.00,0,-999,0,0.00
2012-6-1,65,53,44,41,36,30,77,54,32,0.00,40.00,0,-999,0,0.00
2012-6-2,66,55,48,47,38,-100,77,54,35,0.00,40.00,0,-999,0,0.00
2012-6-3,69,58,49,46,39,34,71,51,33,0.00,40.00,0,-999,0,0.00
2012-6-4,77,63,53,41,35,25,55,37,15,0.00,40.00,0,-999,0,0.00
2012-6-5,71,54,30,39,32,20,90,47,26,0.00,40.00,0,-999,0,0.00
2012-6-6,47,36,28,26,22,18,89,60,34,0.00,40.00,0,-999,0,0.00
2012-6-7,59,44,30,30,22,7,79,48,14,0.00,40.00,0,-999,0,0.00
2012-6-8,62,53,46,35,22,11,65,30,20,0.00,40.00,0,-999,0,0.00
2012-6-9,45,36,27,37,29,19,98,78,44,0.00,40.00,0,-999,0,0.00
2012-6-10,39,32,27,32,27,23,95,82,66,0.00,40.00,0,-999,0,0.00
2012-6-11,41,35,32,35,30,28,87,82,75,0.00,40.00,0,-999,0,0.00
2012-10-8,51,46,41,9,6,2,23,19,17,0.00,40.00,0,-999,0,0.00
2012-10-9,51,41,33,19,14,5,45,33,23,0.00,40.00,0,-999,0,0.00
2012-10-10,58,45,35,19,16,11,49,33,16,0.00,40.00,0,-999,0,0.00
2012-10-11,62,50,43,27,22,16,43,32,21,0.00,40.00,0,-999,0,0.00
2012-10-12,60,50,43,30,27,24,50,41,30,0.00,40.00,0,-999,0,0.00
2012-10-13,49,42,40,35,32,29,83,66,48,0.00,40.00,0,-999,0,0.00
2012-10-14,51,42,34,34,30,27,82,65,42,0.00,40.00,0,-999,0,0.00
2012-10-15,46,40,37,38,32,28,86,72,54,0.00,40.00,0,-999,0,0.00
2012-10-16,41,37,27,39,32,13,98,84,54,0.00,40.00,0,-999,0,0.00
2012-10-17,33,27,23,18,12,9,68,54,39,0.00,40.00,0,-999,0,0.00
2012-10-18,45,33,25,21,15,7,69,49,32,0.00,40.00,0,-999,0,0.00
2012-10-19,50,38,31,31,22,19,76,53,32,0.00,40.00,0,-999,0,0.00
2012-10-20,46,42,38,34,28,20,77,57,37,0.00,40.00,0,-999,0,0.00
2012-10-21,42,38,35,31,24,20,71,57,49,0.00,40.00,0,-999,0,0.00
2012-10-22,38,33,30,33,28,21,98,84,49,0.00,40.00,0,-999,0,0.00
2012-10-23,28,23,19,27,21,15,98,91,81,0.00,40.00,0,-999,0,0.00
2012-10-24,29,20,16,21,15,10,90,79,56,0.00,40.00,0,-999,0,0.00
2012-10-25,24,19,16,21,16,13,94,89,78,0.00,40.00,0,-999,0,0.00
2012-10-26,24,19,15,18,16,12,96,86,79,0.00,40.00,0,-999,0,0.00
2012-10-27,29,24,18,25,21,17,98,90,75,0.00,40.00,0,-999,0,0.00
2012-10-28,38,33,25,36,32,24,98,94,88,0.00,40.00,0,-999,0,0.00
2012-10-29,45,40,35,38,32,24,92,74,52,0.00,40.00,0,-999,0,0.00
2012-10-30,49,40,34,31,27,24,76,60,39,0.00,40.00,0,-999,0,0.00
2012-10-31,52,44,37,28,25,21,66,48,33,0.00,40.00,0,-999,0,0.00
2012-11-1,45,40,33,30,24,18,85,54,35,0.00,40.00,0,-999,0,0.00
2012-11-2,40,34,30,26,22,19,76,63,44,0.00,40.00,0,-999,0,0.00
2012-11-3,42,34,28,25,21,18,74,61,44,0.00,40.00,0,-999,0,0.00
2012-11-4,48,37,32,29,26,18,74,64,47,0.00,40.00,0,-999,0,0.00
2012-11-5,44,38,31,33,30,27,87,75,62,0.00,40.00,0,-999,0,0.00
2012-11-6,49,40,35,35,31,26,90,70,47,0.00,40.00,0,-999,0,0.00
2012-11-7,53,43,37,30,26,22,68,51,37,0.00,40.00,0,-999,0,0.00
2012-11-8,46,41,38,27,23,20,63,49,40,0.00,40.00,0,-999,0,0.00
2012-11-9,39,28,18,28,22,11,97,80,51,0.00,40.00,0,-999,0,0.00
2012-11-10,18,14,7,12,7,-1,85,73,61,0.00,40.00,0,-999,0,0.00
2012-11-11,12,8,5,8,3,-2,91,79,67,0.00,40.00,0,-999,0,0.00
2012-11-12,23,15,8,14,10,5,93,82,61,0.00,40.00,0,-999,0,0.00
2012-11-13,27,22,16,23,20,14,97,93,85,0.00,40.00,0,-999,0,0.00
2012-11-14,28,24,21,26,22,17,96,91,82,0.00,40.00,0,-999,0,0.00
2012-11-15,29,23,17,23,19,15,95,85,72,0.00,40.00,0,-999,0,0.00
2012-11-16,36,30,26,27,22,16,96,72,54,0.00,40.00,0,-999,0,0.00
2012-11-17,32,30,27,29,25,22,97,82,74,0.00,40.00,0,-999,0,0.00
2012-11-18,31,29,25,29,28,24,98,96,91,0.00,40.00,0,-999,0,0.00
2012-11-19,33,29,25,31,28,23,98,95,92,0.00,40.00,0,-999,0,0.00
2012-11-20,35,32,30,32,29,26,96,89,74,0.00,40.00,0,-999,0,0.00
2012-11-21,36,32,23,28,26,17,94,78,67,0.00,40.00,0,-999,0,0.00
2012-11-22,24,19,14,18,11,-2,90,71,39,0.00,40.00,0,-999,0,0.00
2012-11-23,33,23,14,14,9,-2,82,58,25,0.00,40.00,0,-999,0,0.00
2012-11-24,36,32,28,29,20,12,98,66,42,0.00,40.00,0,-999,0,0.00
2012-11-25,34,27,20,30,24,17,98,90,77,0.00,40.00,0,-999,0,0.00
2012-11-26,20,16,11,17,13,8,93,88,80,0.00,40.00,0,-999,0,0.00
2012-11-27,30,23,15,21,17,11,88,76,65,0.00,40.00,0,-999,0,0.00
2012-11-28,37,30,24,20,16,13,70,55,41,0.00,40.00,0,-999,0,0.00
2012-11-29,35,32,29,29,25,21,98,76,57,0.00,40.00,0,-999,0,0.00
2012-11-30,35,32,29,31,28,25,98,89,72,0.00,40.00,0,-999,0,0.00
2012-12-1,35,31,29,29,28,25,98,88,74,0.00,40.00,0,-999,0,0.00
2012-12-2,34,30,23,31,27,21,99,88,73,0.00,40.00,0,-999,0,0.00
2012-12-3,24,20,16,22,17,13,96,88,78,0.00,40.00,0,-999,0,0.00
2012-12-4,30,23,16,29,21,13,98,92,81,0.00,40.00,0,-999,0,0.00
2012-12-5,33,30,27,31,29,23,98,95,85,0.00,40.00,0,-999,0,0.00
2012-12-6,29,25,21,23,21,15,91,83,73,0.00,40.00,0,-999,0,0.00
2012-12-7,21,17,16,17,14,12,94,87,79,0.00,40.00,0,-999,0,0.00
2012-12-8,17,12,0,16,9,-4,94,87,74,0.00,40.00,0,-999,0,0.00
2012-12-9,9,3,-2,3,-2,-6,88,80,62,0.00,40.00,0,-999,0,0.00
2012-12-10,18,14,6,14,10,1,94,87,79,0.00,40.00,0,-999,0,0.00
2012-12-11,21,18,14,20,16,11,97,92,84,0.00,40.00,0,-999,0,0.00
2012-12-12,25,22,18,22,18,13,95,86,74,0.00,40.00,0,-999,0,0.00
2012-12-13,25,23,20,23,20,18,95,91,86,0.00,40.00,0,-999,0,0.00
2012-12-14,29,24,20,23,20,15,96,82,67,0.00,40.00,0,-999,0,0.00
2012-12-15,22,17,11,18,12,7,91,79,69,0.00,40.00,0,-999,0,0.00
2012-12-16,17,13,11,15,11,7,94,90,80,0.00,40.00,0,-999,0,0.00
2012-12-17,24,19,13,23,16,8,97,89,78,0.00,40.00,0,-999,0,0.00
2012-12-18,13,8,1,10,2,-7,89,77,58,0.00,40.00,0,-999,0,0.00
2012-12-19,5,0,-4,0,-4,-8,87,80,74,0.00,40.00,0,-999,0,0.00
2012-12-20,19,10,-1,3,-1,-4,88,62,35,0.00,40.00,0,-999,0,0.00
2012-12-21,28,22,17,6,3,0,56,44,36,0.00,40.00,0,-999,0,0.00
2012-12-22,29,23,18,17,4,0,91,46,32,0.00,40.00,0,-999,0,0.00
2012-12-23,22,18,16,18,15,11,96,88,68,0.00,40.00,0,-999,0,0.00
2012-12-24,21,18,16,19,17,14,95,93,88,0.00,40.00,0,-999,0,0.00
2012-12-26,11,11,11,9,9,9,91,91,91,0.00,40.00,0,-999,0,0.00
2012-12-27,17,12,9,10,7,5,89,80,72,0.00,40.00,0,-999,0,0.00
2012-12-28,10,7,4,5,3,1,88,82,79,0.00,40.00,0,-999,0,0.00
2012-12-29,18,8,2,4,2,-1,88,75,48,0.00,40.00,0,-999,0,0.00
2012-12-30,16,10,4,9,5,1,89,83,70,0.00,40.00,0,-999,0,0.00
2012-12-31,9,3,0,2,-1,-3,88,82,68,0.00,40.00,0,-999,0,0.00
2013-1-1,8,3,0,3,0,-3,89,86,76,0.00,40.00,0,-999,0,0.00